Time;durP1;ratioP1;P1;durP2;ratioP2;P2;SDS_P1;SDS_P2;PMS_P1;PMS_P2;Temp;Humidity;BMP_temperature;BMP_pressure;BME280_temperature;BME280_humidity;BME280_pressure;Samples;Min_cycle;Max_cycle;Signal;HPM_P1;HPM_P2
2022/10/22 00:00:39;;;;;;;14.32;5.50;;;12.60;99.90;;;;;;4813990;29;20258;-95
2022/10/22 00:03:15;;;;;;;9.07;5.50;;;12.60;99.90;;;;;;4813482;29;20198;-95
2022/10/22 00:05:41;;;;;;;7.55;5.07;;;12.60;99.90;;;;;;4797532;29;20296;-95
2022/10/22 00:08:07;;;;;;;8.48;6.05;;;12.60;99.90;;;;;;4812023;29;20211;-95
2022/10/22 00:10:33;;;;;;;11.48;6.05;;;12.50;99.90;;;;;;4826136;29;20228;-95
2022/10/22 00:12:59;;;;;;;12.50;6.90;;;12.60;99.90;;;;;;4811385;29;20599;-96
2022/10/22 00:15:25;;;;;;;9.98;5.82;;;12.60;99.90;;;;;;4827077;29;20263;-94
2022/10/22 00:17:51;;;;;;;7.55;6.00;;;12.60;99.90;;;;;;4812768;29;20321;-95
2022/10/22 00:20:16;;;;;;;11.63;5.97;;;12.60;99.90;;;;;;4812488;29;20678;-96
2022/10/22 00:22:42;;;;;;;8.20;5.63;;;12.60;99.90;;;;;;4812773;29;20248;-94
2022/10/22 00:25:08;;;;;;;11.18;6.00;;;12.60;99.90;;;;;;4813217;29;20186;-96
2022/10/22 00:27:34;;;;;;;14.90;6.57;;;12.60;99.90;;;;;;4811583;29;20202;-95
2022/10/22 00:29:59;;;;;;;8.77;5.90;;;12.60;99.90;;;;;;4812361;29;20225;-94
2022/10/22 00:32:25;;;;;;;9.25;6.45;;;12.60;99.90;;;;;;4802300;29;20190;-95
2022/10/22 00:34:58;;;;;;;8.43;6.05;;;12.70;99.90;;;;;;4815086;29;20653;-93
2022/10/22 00:37:23;;;;;;;8.63;5.70;;;12.70;99.90;;;;;;4810541;29;20202;-95
2022/10/22 00:39:49;;;;;;;8.80;6.00;;;12.70;99.90;;;;;;4810481;29;20190;-95
2022/10/22 00:42:21;;;;;;;11.60;6.18;;;12.70;99.90;;;;;;4812802;29;20522;-95
2022/10/22 00:45:11;;;;;;;8.25;5.82;;;12.80;99.90;;;;;;4810657;29;20185;-93
2022/10/22 00:47:40;;;;;;;9.38;6.47;;;12.80;99.90;;;;;;4810754;29;20179;-96
2022/10/22 00:50:11;;;;;;;13.15;6.35;;;12.90;99.90;;;;;;4799860;29;20221;-93
2022/10/22 00:52:38;;;;;;;11.27;6.22;;;12.90;99.90;;;;;;4812190;29;20209;-95
2022/10/22 00:55:05;;;;;;;10.65;6.65;;;13.00;99.90;;;;;;4825080;29;20178;-94
2022/10/22 00:57:31;;;;;;;7.93;6.65;;;13.00;99.90;;;;;;4812629;29;20186;-94
2022/10/22 00:59:57;;;;;;;8.13;6.38;;;13.00;99.90;;;;;;4810794;29;20197;-96
2022/10/22 01:02:23;;;;;;;11.77;6.90;;;13.00;99.90;;;;;;4802509;29;20228;-96
2022/10/22 01:04:53;;;;;;;9.45;6.18;;;13.00;99.90;;;;;;4794297;29;20221;-96
2022/10/22 01:07:22;;;;;;;10.07;6.32;;;13.00;99.90;;;;;;4810865;29;20186;-96
2022/10/22 01:10:06;;;;;;;9.63;6.50;;;12.90;99.90;;;;;;4826423;29;20186;-95
2022/10/22 01:13:08;;;;;;;11.95;6.93;;;12.90;99.90;;;;;;4810567;29;20229;-96
2022/10/22 01:15:50;;;;;;;10.70;7.13;;;12.80;99.90;;;;;;4821649;29;20314;-96
2022/10/22 01:18:21;;;;;;;8.40;6.43;;;12.90;99.90;;;;;;4824907;29;20257;-96
2022/10/22 01:20:59;;;;;;;10.07;6.72;;;12.90;99.90;;;;;;4818355;29;20278;-95
2022/10/22 01:24:02;;;;;;;13.00;6.80;;;12.90;99.90;;;;;;4810662;29;20197;-95
2022/10/22 01:26:42;;;;;;;12.05;6.10;;;12.90;99.90;;;;;;4814901;29;20201;-96
2022/10/22 01:29:11;;;;;;;10.40;6.20;;;12.90;99.90;;;;;;4828884;29;20238;-95
2022/10/22 01:31:54;;;;;;;7.63;6.25;;;12.90;99.90;;;;;;4826070;29;20225;-96
2022/10/22 01:34:27;;;;;;;8.52;6.85;;;12.90;99.90;;;;;;4809967;29;20196;-96
2022/10/22 01:36:55;;;;;;;8.65;6.80;;;12.90;99.90;;;;;;4811214;29;20215;-96
2022/10/22 01:39:22;;;;;;;8.98;6.60;;;12.90;99.90;;;;;;4808913;29;20705;-95
2022/10/22 01:41:48;;;;;;;7.82;6.50;;;12.90;99.90;;;;;;4810705;29;20182;-96
2022/10/22 01:44:28;;;;;;;12.55;7.53;;;12.90;99.90;;;;;;4806711;29;20281;-95
2022/10/22 01:47:14;;;;;;;9.10;6.20;;;12.90;99.90;;;;;;4793142;29;20189;-96
2022/10/22 01:49:52;;;;;;;15.25;6.88;;;13.00;99.90;;;;;;4803921;29;20190;-95
2022/10/22 01:52:40;;;;;;;16.15;7.80;;;13.10;99.90;;;;;;4810918;29;20178;-94
2022/10/22 01:55:41;;;;;;;10.38;7.15;;;13.00;99.90;;;;;;4809983;29;20268;-95
2022/10/22 01:58:35;;;;;;;11.45;7.72;;;13.00;99.90;;;;;;4810599;29;20185;-95
2022/10/22 02:01:33;;;;;;;11.43;7.63;;;13.00;99.90;;;;;;4830103;29;20186;-95
2022/10/22 02:04:21;;;;;;;10.75;7.30;;;13.00;99.90;;;;;;4793573;29;20217;-95
2022/10/22 02:06:50;;;;;;;14.40;7.85;;;12.90;99.90;;;;;;4833065;29;20178;-96
2022/10/22 02:09:19;;;;;;;12.35;7.03;;;12.90;99.90;;;;;;4833191;29;20578;-96
2022/10/22 02:11:46;;;;;;;11.00;7.68;;;12.90;99.90;;;;;;5204881;24;20237;-90
2022/10/22 02:14:22;;;;;;;9.93;7.53;;;12.90;99.90;;;;;;4808911;29;20193;-89
2022/10/22 02:16:49;;;;;;;14.15;8.13;;;12.90;99.90;;;;;;4803814;29;20685;-90
2022/10/22 02:19:26;;;;;;;10.70;7.13;;;12.90;99.90;;;;;;4793817;29;20231;-89
2022/10/22 02:22:04;;;;;;;8.88;6.72;;;12.90;99.90;;;;;;4794283;29;20190;-91
2022/10/22 02:24:30;;;;;;;11.80;7.63;;;12.80;99.90;;;;;;4793387;29;20289;-89
2022/10/22 02:27:10;;;;;;;11.43;7.72;;;12.80;99.90;;;;;;4793434;29;20229;-90
2022/10/22 02:30:11;;;;;;;12.25;7.43;;;12.80;99.90;;;;;;4793550;29;20286;-89
2022/10/22 02:33:13;;;;;;;11.77;6.90;;;12.80;99.90;;;;;;4778302;30;20231;-91
2022/10/22 02:35:41;;;;;;;9.02;6.70;;;12.70;99.90;;;;;;4704686;30;20305;-89
2022/10/22 02:38:31;;;;;;;11.05;7.72;;;12.70;99.90;;;;;;4733582;30;20264;-90
2022/10/22 02:41:21;;;;;;;9.50;6.80;;;12.70;99.90;;;;;;4735464;30;20201;-89
2022/10/22 02:43:55;;;;;;;10.80;7.07;;;12.70;99.90;;;;;;4721755;30;20198;-89
2022/10/22 02:46:28;;;;;;;10.75;6.63;;;12.70;99.90;;;;;;4788184;29;20713;-89
2022/10/22 02:49:14;;;;;;;10.02;6.80;;;12.70;99.90;;;;;;4793750;29;20713;-90
2022/10/22 02:51:52;;;;;;;10.60;7.38;;;12.70;99.90;;;;;;4793151;29;20214;-91
2022/10/22 02:54:31;;;;;;;15.43;6.70;;;12.70;99.90;;;;;;4793653;29;20715;-90
2022/10/22 02:56:57;;;;;;;9.52;7.25;;;12.70;99.90;;;;;;4793384;29;20685;-89
2022/10/22 02:59:26;;;;;;;8.98;6.80;;;12.70;99.90;;;;;;4793486;29;20240;-89
2022/10/22 03:01:52;;;;;;;9.27;7.53;;;12.70;99.90;;;;;;4792858;29;20675;-90
2022/10/22 03:04:19;;;;;;;10.43;7.18;;;12.70;99.90;;;;;;4793225;29;20195;-90
2022/10/22 03:06:49;;;;;;;11.13;6.90;;;12.70;99.90;;;;;;4792912;29;20202;-89
2022/10/22 03:09:25;;;;;;;8.80;6.90;;;12.60;99.90;;;;;;4793312;29;20182;-89
2022/10/22 03:12:09;;;;;;;9.80;7.18;;;12.60;99.90;;;;;;4784829;29;20288;-90
2022/10/22 03:14:35;;;;;;;9.00;6.82;;;12.70;99.90;;;;;;4785381;30;20192;-90
2022/10/22 03:17:07;;;;;;;8.02;6.35;;;12.60;99.90;;;;;;4786826;30;20208;-90
2022/10/22 03:19:34;;;;;;;8.43;6.07;;;12.60;99.90;;;;;;4790202;30;20198;-89
2022/10/22 03:22:18;;;;;;;12.50;7.38;;;12.60;99.90;;;;;;4789284;30;20195;-89
2022/10/22 03:25:21;;;;;;;12.07;7.18;;;12.60;99.90;;;;;;4776436;30;20199;-89
2022/10/22 03:27:54;;;;;;;9.10;6.50;;;12.60;99.90;;;;;;4781148;30;20211;-89
2022/10/22 03:30:22;;;;;;;11.13;6.32;;;12.60;99.90;;;;;;4790275;30;20277;-90
2022/10/22 03:32:52;;;;;;;14.18;7.95;;;12.60;99.90;;;;;;4786792;30;20196;-90
2022/10/22 03:35:24;;;;;;;11.65;6.72;;;12.60;99.90;;;;;;4788831;30;20191;-89
2022/10/22 03:38:05;;;;;;;9.98;6.75;;;12.60;99.90;;;;;;4789266;29;20305;-89
2022/10/22 03:40:33;;;;;;;10.15;7.00;;;12.60;99.90;;;;;;4789892;30;20626;-89
2022/10/22 03:43:01;;;;;;;10.52;7.30;;;12.60;99.90;;;;;;4786965;30;20728;-90
2022/10/22 03:45:27;;;;;;;9.95;7.38;;;12.60;99.90;;;;;;4789835;30;20644;-90
2022/10/22 03:48:04;;;;;;;9.02;6.97;;;12.50;99.90;;;;;;4789619;29;20260;-89
2022/10/22 03:50:31;;;;;;;11.88;7.35;;;12.60;99.90;;;;;;4789950;30;20260;-91
2022/10/22 03:52:58;;;;;;;8.48;7.22;;;12.50;99.90;;;;;;4786745;30;20196;-90
2022/10/22 03:55:24;;;;;;;10.40;7.47;;;12.50;99.90;;;;;;4789778;30;20282;-89
2022/10/22 03:57:50;;;;;;;12.45;6.78;;;12.50;99.90;;;;;;4789180;30;20335;-90
2022/10/22 04:00:18;;;;;;;8.93;6.78;;;12.50;99.90;;;;;;4789788;30;20199;-90
2022/10/22 04:02:44;;;;;;;8.65;7.10;;;12.50;99.90;;;;;;4789355;30;20198;-90
2022/10/22 04:05:18;;;;;;;15.15;6.90;;;12.50;99.90;;;;;;4789514;30;20187;-90
2022/10/22 04:07:45;;;;;;;12.00;7.50;;;12.50;99.90;;;;;;4789137;29;20211;-90
2022/10/22 04:10:12;;;;;;;7.88;6.75;;;12.50;99.90;;;;;;4789250;30;20348;-90
2022/10/22 04:12:39;;;;;;;7.65;6.63;;;12.50;99.90;;;;;;4788864;29;20284;-89
2022/10/22 04:15:08;;;;;;;8.48;7.18;;;12.50;99.90;;;;;;4789362;30;20187;-90
2022/10/22 04:17:35;;;;;;;8.38;7.07;;;12.50;99.90;;;;;;4788534;29;20668;-90
2022/10/22 04:20:04;;;;;;;8.57;7.28;;;12.50;99.90;;;;;;4789231;30;20191;-89
2022/10/22 04:22:34;;;;;;;9.48;7.38;;;12.50;99.90;;;;;;4788669;29;20195;-89
2022/10/22 04:25:03;;;;;;;8.18;6.63;;;12.50;99.90;;;;;;4789163;30;20648;-89
2022/10/22 04:27:33;;;;;;;8.93;6.78;;;12.50;99.90;;;;;;4788485;30;20215;-89
2022/10/22 04:29:59;;;;;;;7.55;6.32;;;12.50;99.90;;;;;;4788485;30;20195;-89
2022/10/22 04:32:32;;;;;;;8.95;7.05;;;12.40;99.90;;;;;;4788671;30;20190;-89
2022/10/22 04:35:01;;;;;;;9.00;6.60;;;12.40;99.90;;;;;;4788787;30;20179;-90
2022/10/22 04:37:36;;;;;;;8.85;6.97;;;12.40;99.90;;;;;;4788588;30;20257;-89
2022/10/22 04:40:03;;;;;;;11.18;7.45;;;12.40;99.90;;;;;;4788502;30;20201;-89
2022/10/22 04:42:29;;;;;;;9.95;6.78;;;12.40;99.90;;;;;;4788246;30;20199;-89
2022/10/22 04:44:56;;;;;;;9.18;7.05;;;12.40;99.90;;;;;;4788468;30;20179;-89
2022/10/22 04:47:23;;;;;;;10.35;7.10;;;12.40;99.90;;;;;;4787938;30;20215;-90
2022/10/22 04:49:52;;;;;;;8.88;7.18;;;12.40;99.90;;;;;;4789339;29;20202;-90
2022/10/22 04:52:25;;;;;;;12.18;7.03;;;12.40;99.90;;;;;;4789013;30;20188;-89
2022/10/22 04:54:51;;;;;;;12.60;7.45;;;12.30;99.90;;;;;;4787375;30;20229;-90
2022/10/22 04:57:23;;;;;;;9.18;6.60;;;12.30;99.90;;;;;;4785434;29;20232;-90
2022/10/22 04:59:49;;;;;;;9.48;6.85;;;12.30;99.90;;;;;;4782691;30;20298;-90
2022/10/22 05:02:15;;;;;;;8.98;7.25;;;12.40;99.90;;;;;;4781163;30;20183;-88
2022/10/22 05:04:44;;;;;;;10.32;6.60;;;12.30;99.90;;;;;;4788194;30;20192;-89
2022/10/22 05:07:12;;;;;;;8.45;6.55;;;12.30;99.90;;;;;;4788374;29;20294;-88
2022/10/22 05:09:38;;;;;;;14.30;6.93;;;12.30;99.90;;;;;;4788019;30;20187;-90
2022/10/22 05:12:06;;;;;;;10.00;6.88;;;12.30;99.90;;;;;;4787257;29;20288;-88
2022/10/22 05:14:36;;;;;;;16.02;7.32;;;12.30;99.90;;;;;;4788020;30;20191;-88
2022/10/22 05:17:02;;;;;;;12.57;7.75;;;12.30;99.90;;;;;;4781709;29;20207;-87
2022/10/22 05:19:35;;;;;;;9.25;7.40;;;12.30;99.90;;;;;;4787483;30;20188;-88
2022/10/22 05:22:03;;;;;;;9.38;7.20;;;12.30;99.90;;;;;;4798222;29;20248;-87
2022/10/22 05:24:30;;;;;;;10.30;7.68;;;12.40;99.90;;;;;;4801532;29;20186;-88
2022/10/22 05:27:12;;;;;;;13.77;9.68;;;12.30;99.90;;;;;;4800405;29;20306;-88
2022/10/22 05:29:40;;;;;;;12.38;7.63;;;12.30;99.90;;;;;;4788006;30;20648;-88
2022/10/22 05:32:12;;;;;;;9.45;6.85;;;12.30;99.90;;;;;;4788570;29;20296;-88
2022/10/22 05:34:38;;;;;;;8.05;5.95;;;12.20;99.90;;;;;;4787573;30;20183;-88
2022/10/22 05:37:13;;;;;;;8.63;6.80;;;12.20;99.90;;;;;;4784680;30;20350;-89
2022/10/22 05:39:40;;;;;;;9.57;6.80;;;12.20;99.90;;;;;;4783921;30;20195;-89
2022/10/22 05:42:06;;;;;;;8.10;6.40;;;12.20;99.90;;;;;;4786768;30;20187;-89
2022/10/22 05:44:32;;;;;;;8.75;6.10;;;12.20;99.90;;;;;;4786712;30;20202;-88
2022/10/22 05:46:57;;;;;;;10.68;6.80;;;12.10;99.90;;;;;;4786646;29;20210;-89
2022/10/22 05:49:23;;;;;;;14.32;7.00;;;12.10;99.90;;;;;;4786697;30;20205;-87
2022/10/22 05:51:49;;;;;;;12.38;7.70;;;12.10;99.90;;;;;;4797664;29;20207;-88
2022/10/22 05:54:18;;;;;;;10.73;7.55;;;12.10;99.90;;;;;;4776552;29;20191;-89
2022/10/22 05:56:44;;;;;;;9.30;7.22;;;12.10;99.90;;;;;;4783308;29;20269;-89
2022/10/22 05:59:10;;;;;;;10.80;7.60;;;12.10;99.90;;;;;;4787528;30;20245;-88
2022/10/22 06:01:38;;;;;;;14.65;8.02;;;12.20;99.90;;;;;;4787448;30;20179;-88
2022/10/22 06:04:10;;;;;;;9.48;7.80;;;12.20;99.90;;;;;;4774657;30;20282;-90
2022/10/22 06:06:46;;;;;;;16.10;7.80;;;12.30;99.90;;;;;;4787527;29;20211;-88
2022/10/22 06:09:23;;;;;;;11.57;7.88;;;12.40;99.90;;;;;;4788739;29;20386;-90
2022/10/22 06:11:51;;;;;;;12.25;8.57;;;12.40;99.90;;;;;;4787104;29;20298;-89
2022/10/22 06:14:19;;;;;;;13.02;8.25;;;12.40;99.90;;;;;;4787600;30;20199;-88
2022/10/22 06:16:45;;;;;;;12.45;7.63;;;12.40;99.90;;;;;;4787405;29;20215;-89
2022/10/22 06:19:15;;;;;;;11.25;7.65;;;12.40;99.90;;;;;;4787303;30;20206;-88
2022/10/22 06:21:46;;;;;;;12.80;8.52;;;12.40;99.90;;;;;;4787730;30;20206;-89
2022/10/22 06:24:30;;;;;;;13.27;8.30;;;12.40;99.90;;;;;;4769326;30;20638;-88
2022/10/22 06:26:58;;;;;;;11.40;7.15;;;12.40;99.90;;;;;;4777691;29;20239;-88
2022/10/22 06:29:34;;;;;;;14.98;8.07;;;12.40;99.90;;;;;;4785455;30;20180;-90
2022/10/22 06:32:24;;;;;;;11.40;8.05;;;12.40;99.90;;;;;;4784791;30;20212;-88
2022/10/22 06:34:53;;;;;;;14.68;8.45;;;12.50;99.90;;;;;;4785192;30;20176;-88
2022/10/22 06:37:25;;;;;;;27.38;8.57;;;12.50;99.90;;;;;;4782870;29;20211;-88
2022/10/22 06:39:51;;;;;;;14.02;7.75;;;12.50;99.90;;;;;;4787743;30;20195;-88
2022/10/22 06:42:17;;;;;;;13.15;7.97;;;12.50;99.90;;;;;;4788033;30;20626;-87
2022/10/22 06:44:49;;;;;;;12.88;8.70;;;12.60;99.90;;;;;;4787115;30;20198;-88
2022/10/22 06:47:16;;;;;;;11.77;7.70;;;12.60;99.90;;;;;;4789542;29;20207;-89
2022/10/22 06:49:48;;;;;;;10.57;8.05;;;12.60;99.90;;;;;;4790502;30;20693;-88
2022/10/22 06:52:16;;;;;;;11.32;8.38;;;12.60;99.90;;;;;;4790519;30;20278;-88
2022/10/22 06:54:44;;;;;;;13.43;7.90;;;12.60;99.90;;;;;;4790747;30;20578;-88
2022/10/22 06:57:11;;;;;;;10.07;7.93;;;12.70;99.90;;;;;;4791879;29;20200;-87
2022/10/22 06:59:37;;;;;;;10.43;8.30;;;12.70;99.90;;;;;;4790245;30;20784;-88
2022/10/22 07:02:04;;;;;;;8.88;6.68;;;12.80;99.90;;;;;;4791034;30;20172;-88
2022/10/22 07:04:31;;;;;;;12.35;8.57;;;12.80;99.90;;;;;;4791303;29;20654;-87
2022/10/22 07:06:59;;;;;;;10.93;7.95;;;12.80;99.90;;;;;;4790037;29;20211;-88
2022/10/22 07:09:25;;;;;;;12.02;7.60;;;12.80;99.90;;;;;;4789553;30;20275;-87
2022/10/22 07:11:51;;;;;;;14.90;7.65;;;12.80;99.90;;;;;;4789495;29;20322;-88
2022/10/22 07:14:17;;;;;;;8.82;7.28;;;12.90;99.90;;;;;;4789155;30;20275;-87
2022/10/22 07:16:44;;;;;;;13.75;7.78;;;12.90;99.90;;;;;;4790398;29;20199;-88
2022/10/22 07:19:10;;;;;;;8.93;7.03;;;13.00;99.90;;;;;;4784574;30;20200;-88
2022/10/22 07:21:37;;;;;;;12.30;7.75;;;13.00;99.90;;;;;;4771446;30;20270;-87
2022/10/22 07:24:03;;;;;;;16.63;8.00;;;13.00;99.90;;;;;;4771431;30;20180;-87
2022/10/22 07:26:31;;;;;;;14.38;8.10;;;13.10;99.90;;;;;;4771744;30;20211;-88
2022/10/22 07:28:59;;;;;;;13.73;7.88;;;13.10;99.90;;;;;;4772861;30;20278;-87
2022/10/22 07:31:25;;;;;;;14.23;8.05;;;13.10;99.90;;;;;;4787255;30;20706;-87
2022/10/22 07:33:51;;;;;;;9.23;8.07;;;13.20;99.90;;;;;;4786255;29;20265;-88
2022/10/22 07:36:17;;;;;;;14.70;8.55;;;13.20;99.90;;;;;;4786100;29;20208;-88
2022/10/22 07:38:44;;;;;;;14.07;7.43;;;13.20;99.90;;;;;;4771437;30;20383;-87
2022/10/22 07:41:11;;;;;;;15.93;7.95;;;13.30;99.90;;;;;;4782828;30;20185;-87
2022/10/22 07:43:37;;;;;;;12.70;8.23;;;13.30;99.90;;;;;;4789260;30;20194;-87
2022/10/22 07:46:03;;;;;;;13.60;8.00;;;13.30;99.90;;;;;;4778211;30;20258;-88
2022/10/22 07:48:29;;;;;;;11.35;8.38;;;13.30;99.90;;;;;;4784528;30;20226;-88
2022/10/22 07:50:57;;;;;;;14.48;8.40;;;13.30;99.90;;;;;;4790014;29;20305;-87
2022/10/22 07:53:23;;;;;;;15.18;7.95;;;13.30;99.90;;;;;;4789053;30;20176;-88
2022/10/22 07:55:50;;;;;;;16.27;8.18;;;13.40;99.90;;;;;;4773012;30;20206;-87
2022/10/22 07:58:29;;;;;;;15.70;7.63;;;13.50;99.90;;;;;;4770465;30;20180;-87
2022/10/22 08:00:59;;;;;;;15.32;8.23;;;13.50;99.90;;;;;;4771776;30;20184;-88
2022/10/22 08:03:26;;;;;;;15.18;8.18;;;13.50;99.90;;;;;;4770996;30;20184;-88
2022/10/22 08:05:59;;;;;;;12.77;8.15;;;13.50;99.90;;;;;;4787395;29;20192;-89
2022/10/22 08:08:26;;;;;;;16.48;7.60;;;13.50;99.90;;;;;;4790184;30;20639;-88
2022/10/22 08:10:55;;;;;;;11.38;7.40;;;13.50;99.90;;;;;;4790703;29;20211;-88
2022/10/22 08:13:22;;;;;;;12.63;7.72;;;13.50;99.90;;;;;;4792584;29;20607;-89
2022/10/22 08:15:48;;;;;;;12.07;7.65;;;13.50;99.90;;;;;;4792212;29;20202;-88
2022/10/22 08:18:15;;;;;;;12.75;8.63;;;13.50;99.90;;;;;;4792003;29;20190;-89
2022/10/22 08:20:41;;;;;;;13.13;8.73;;;13.60;99.90;;;;;;4791858;29;20261;-89
2022/10/22 08:23:07;;;;;;;15.00;9.20;;;13.60;99.90;;;;;;4791723;29;20628;-89
2022/10/22 08:25:33;;;;;;;12.35;8.55;;;13.70;99.90;;;;;;4792255;29;20182;-89
2022/10/22 08:27:59;;;;;;;15.10;9.07;;;13.80;99.90;;;;;;4788915;29;20592;-89
2022/10/22 08:30:26;;;;;;;14.50;9.52;;;13.90;99.90;;;;;;4792064;29;20218;-88
2022/10/22 08:32:52;;;;;;;15.63;9.43;;;13.90;99.90;;;;;;4824481;29;20234;-87
2022/10/22 08:35:18;;;;;;;16.15;9.45;;;14.10;99.90;;;;;;4789683;29;20195;-88
2022/10/22 08:37:44;;;;;;;17.30;8.50;;;14.10;99.90;;;;;;4775111;29;20270;-88
2022/10/22 08:40:20;;;;;;;12.82;9.00;;;14.10;99.90;;;;;;4796210;29;20192;-88
2022/10/22 08:42:58;;;;;;;12.10;8.98;;;14.20;99.90;;;;;;4802607;29;20188;-90
2022/10/22 08:45:35;;;;;;;13.60;8.70;;;14.30;99.90;;;;;;4776951;29;20209;-88
2022/10/22 08:48:22;;;;;;;12.95;8.10;;;14.30;99.90;;;;;;4790761;29;20663;-88
2022/10/22 08:50:52;;;;;;;11.02;8.05;;;14.40;99.90;;;;;;4791277;29;20245;-88
2022/10/22 08:53:24;;;;;;;16.17;8.77;;;14.50;99.90;;;;;;4790982;29;20593;-88
2022/10/22 08:55:52;;;;;;;14.45;8.20;;;14.60;99.90;;;;;;4803577;29;20190;-87
2022/10/22 08:58:41;;;;;;;21.10;7.90;;;14.70;99.90;;;;;;4800296;29;20273;-87
2022/10/22 09:01:13;;;;;;;11.88;7.55;;;14.80;99.90;;;;;;4790767;29;20213;-89
2022/10/22 09:03:56;;;;;;;14.55;8.02;;;14.80;99.90;;;;;;4790729;29;20197;-89
2022/10/22 09:06:28;;;;;;;15.20;7.45;;;14.90;99.90;;;;;;4790899;29;20575;-87
2022/10/22 09:08:57;;;;;;;9.60;7.05;;;15.00;99.90;;;;;;4790920;29;20174;-87
2022/10/22 09:11:29;;;;;;;9.15;6.35;;;15.10;99.90;;;;;;4787307;29;20243;-88
2022/10/22 09:14:11;;;;;;;9.68;6.10;;;15.10;99.90;;;;;;4788421;30;20190;-88
2022/10/22 09:16:57;;;;;;;12.90;5.82;;;15.20;99.90;;;;;;4788330;30;20199;-87
2022/10/22 09:19:30;;;;;;;8.93;5.47;;;15.30;99.90;;;;;;4787310;30;20629;-88
2022/10/22 09:22:23;;;;;;;10.02;5.22;;;15.40;99.90;;;;;;4787610;30;20245;-87
2022/10/22 09:24:58;;;;;;;8.05;5.03;;;15.40;99.90;;;;;;4787528;30;20194;-88
2022/10/22 09:27:29;;;;;;;8.75;4.68;;;15.50;99.90;;;;;;4794643;29;20214;-88
2022/10/22 09:29:55;;;;;;;6.97;4.50;;;15.50;99.90;;;;;;4801905;29;20549;-87
2022/10/22 09:32:22;;;;;;;6.07;4.75;;;15.60;99.90;;;;;;4819327;29;20174;-89
2022/10/22 09:34:49;;;;;;;10.90;4.43;;;15.70;99.90;;;;;;4788565;30;20176;-87
2022/10/22 09:37:23;;;;;;;12.68;4.43;;;15.70;99.90;;;;;;4788120;29;20207;-88
2022/10/22 09:39:54;;;;;;;8.43;3.70;;;15.80;99.90;;;;;;4788306;30;20179;-88
2022/10/22 09:42:22;;;;;;;5.95;3.65;;;15.90;99.90;;;;;;4788532;30;20192;-89
2022/10/22 09:44:54;;;;;;;6.70;3.90;;;16.10;99.90;;;;;;4788534;30;20210;-87
2022/10/22 09:47:41;;;;;;;5.13;3.33;;;16.10;99.90;;;;;;4788255;29;20215;-88
2022/10/22 09:50:21;;;;;;;7.32;3.45;;;16.10;99.90;;;;;;4795981;29;20185;-88
2022/10/22 09:52:58;;;;;;;9.35;3.53;;;16.20;99.90;;;;;;4821213;29;20261;-87
2022/10/22 09:55:24;;;;;;;5.35;3.83;;;16.20;99.90;;;;;;4806223;29;20266;-88
2022/10/22 09:57:55;;;;;;;7.55;3.22;;;16.30;99.90;;;;;;4805887;29;20861;-88
2022/10/22 10:00:23;;;;;;;7.72;3.30;;;16.30;99.90;;;;;;4806267;29;20212;-89
2022/10/22 10:02:57;;;;;;;5.93;3.15;;;16.30;99.90;;;;;;4805982;29;20187;-89
2022/10/22 10:05:30;;;;;;;7.38;3.00;;;16.40;99.90;;;;;;4806474;29;20616;-89
2022/10/22 10:07:57;;;;;;;5.20;2.75;;;16.50;99.90;;;;;;4806098;29;20300;-89
2022/10/22 10:10:34;;;;;;;3.60;2.65;;;16.50;99.90;;;;;;4820843;29;20203;-90
2022/10/22 10:13:14;;;;;;;6.72;2.40;;;16.60;99.90;;;;;;4794085;29;20230;-88
2022/10/22 10:16:00;;;;;;;3.90;2.35;;;16.60;99.90;;;;;;4787975;30;20193;-88
2022/10/22 10:19:04;;;;;;;6.47;2.35;;;16.70;99.90;;;;;;4788368;30;20183;-89
2022/10/22 10:21:48;;;;;;;5.47;2.55;;;16.70;99.90;;;;;;4789142;30;20279;-88
2022/10/22 10:24:32;;;;;;;6.13;2.40;;;16.80;99.90;;;;;;4791157;30;20549;-89
2022/10/22 10:27:18;;;;;;;4.68;2.10;;;17.00;99.90;;;;;;4790583;30;20714;-89
2022/10/22 10:30:10;;;;;;;5.85;2.33;;;17.00;99.90;;;;;;4792069;30;20267;-89
2022/10/22 10:32:51;;;;;;;5.60;2.00;;;17.10;99.90;;;;;;4791922;30;20198;-90
2022/10/22 10:35:28;;;;;;;6.05;1.80;;;17.10;99.90;;;;;;4791781;30;20187;-89
2022/10/22 10:38:25;;;;;;;3.55;1.70;;;17.10;99.90;;;;;;4791790;29;20568;-89
2022/10/22 10:41:04;;;;;;;4.47;1.80;;;17.10;99.90;;;;;;4792076;30;20187;-89
2022/10/22 10:43:42;;;;;;;6.97;2.10;;;17.30;99.90;;;;;;4791335;29;20195;-89
2022/10/22 10:46:45;;;;;;;10.55;2.20;;;17.40;99.90;;;;;;4791105;30;20203;-90
2022/10/22 10:49:33;;;;;;;8.32;2.60;;;17.50;99.90;;;;;;4791475;30;20195;-91
2022/10/22 10:52:14;;;;;;;6.70;2.00;;;17.60;99.90;;;;;;4790555;30;20221;-90
2022/10/22 10:54:53;;;;;;;3.83;1.90;;;17.60;99.90;;;;;;4789902;30;20206;-90
2022/10/22 10:57:53;;;;;;;10.65;2.33;;;17.60;99.90;;;;;;4790831;29;20213;-90
2022/10/22 11:00:22;;;;;;;5.00;2.10;;;17.60;99.90;;;;;;4779533;30;20199;-89
2022/10/22 11:03:13;;;;;;;6.53;2.05;;;17.60;99.90;;;;;;4808242;29;20255;-90
2022/10/22 11:05:56;;;;;;;5.03;2.00;;;17.70;99.90;;;;;;4810677;29;20264;-88
2022/10/22 11:08:25;;;;;;;4.60;2.08;;;17.80;99.90;;;;;;4808965;29;20175;-89
2022/10/22 11:11:00;;;;;;;10.95;1.98;;;17.70;99.90;;;;;;4809364;29;20214;-90
2022/10/22 11:13:29;;;;;;;2.72;1.88;;;17.80;99.90;;;;;;4811064;29;20173;-90
2022/10/22 11:16:11;;;;;;;5.93;2.22;;;17.70;99.90;;;;;;4810603;29;20182;-91
2022/10/22 11:18:45;;;;;;;4.40;1.90;;;17.50;99.90;;;;;;4811189;29;20181;-90
2022/10/22 11:21:40;;;;;;;5.50;1.85;;;17.70;99.90;;;;;;4811365;29;20240;-89
2022/10/22 11:24:12;;;;;;;8.00;2.03;;;17.80;99.90;;;;;;4811427;29;20658;-90
2022/10/22 11:26:41;;;;;;;4.57;1.98;;;17.80;99.90;;;;;;4811826;29;20305;-91
2022/10/22 11:29:14;;;;;;;3.88;2.33;;;17.80;99.90;;;;;;4811670;29;20182;-91
2022/10/22 11:31:40;;;;;;;5.05;2.28;;;17.90;99.90;;;;;;4811349;29;20206;-90
2022/10/22 11:34:19;;;;;;;5.80;2.20;;;17.90;99.90;;;;;;4811480;29;20178;-90
2022/10/22 11:36:46;;;;;;;3.45;1.92;;;17.90;99.90;;;;;;4811367;29;20292;-90
2022/10/22 11:39:34;;;;;;;6.30;2.28;;;18.00;99.90;;;;;;4811433;29;20537;-91
2022/10/22 11:42:05;;;;;;;4.63;1.90;;;18.00;99.90;;;;;;4811118;29;20174;-90
2022/10/22 11:44:44;;;;;;;3.05;1.80;;;18.20;99.90;;;;;;4811469;29;20182;-91
2022/10/22 11:47:24;;;;;;;4.45;1.90;;;18.20;99.90;;;;;;4811205;29;20232;-90
2022/10/22 11:50:01;;;;;;;3.15;2.10;;;18.40;99.90;;;;;;4810888;29;20273;-91
2022/10/22 11:52:30;;;;;;;5.20;1.80;;;18.50;99.90;;;;;;4810499;29;20177;-92
2022/10/22 11:54:59;;;;;;;4.72;1.90;;;18.50;99.90;;;;;;4810684;29;20174;-92
2022/10/22 11:57:37;;;;;;;3.67;1.73;;;18.50;99.90;;;;;;4810879;29;20210;-90
2022/10/22 12:00:38;;;;;;;4.28;2.05;;;18.50;99.90;;;;;;4810909;29;20174;-90
2022/10/22 12:03:23;;;;;;;5.90;1.80;;;18.40;99.90;;;;;;4819357;29;20187;-90
2022/10/22 12:06:18;;;;;;;5.35;2.03;;;18.20;99.90;;;;;;4792675;29;20174;-91
2022/10/22 12:08:53;;;;;;;3.60;2.00;;;18.20;99.90;;;;;;4792677;29;20701;-91
2022/10/22 12:11:35;;;;;;;2.78;2.03;;;18.10;99.90;;;;;;4789508;29;20250;-90
2022/10/22 12:14:15;;;;;;;2.42;1.67;;;18.00;99.90;;;;;;4789539;30;20207;-92
2022/10/22 12:16:46;;;;;;;7.50;2.20;;;18.00;99.90;;;;;;4789991;29;20241;-91
2022/10/22 12:19:16;;;;;;;11.25;2.10;;;17.90;99.90;;;;;;4790895;30;20217;-90
2022/10/22 12:21:47;;;;;;;5.53;2.08;;;18.10;99.90;;;;;;4790746;30;20246;-91
2022/10/22 12:24:17;;;;;;;9.20;2.03;;;18.40;99.90;;;;;;4789532;30;20183;-91
2022/10/22 12:26:45;;;;;;;7.82;2.40;;;18.70;99.90;;;;;;4789514;29;20282;-91
2022/10/22 12:29:14;;;;;;;4.18;1.77;;;19.00;99.90;;;;;;4789111;30;20234;-90
2022/10/22 12:31:41;;;;;;;7.40;2.00;;;19.10;99.90;;;;;;4788891;30;20294;-91
2022/10/22 12:34:13;;;;;;;5.40;1.75;;;19.00;99.90;;;;;;4789182;30;20225;-91
2022/10/22 12:36:42;;;;;;;3.20;1.70;;;18.80;99.90;;;;;;4789603;29;20211;-91
2022/10/22 12:39:23;;;;;;;2.20;1.70;;;18.80;99.90;;;;;;4789767;30;20187;-92
2022/10/22 12:41:52;;;;;;;8.15;2.40;;;18.70;99.90;;;;;;4789853;30;20206;-91
2022/10/22 12:44:18;;;;;;;6.60;1.90;;;18.50;99.90;;;;;;4788897;29;20190;-91
2022/10/22 12:46:47;;;;;;;5.28;2.05;;;18.40;99.90;;;;;;4789150;29;20218;-91
2022/10/22 12:49:32;;;;;;;3.55;1.70;;;18.20;99.90;;;;;;4789325;30;20183;-90
2022/10/22 12:52:03;;;;;;;7.75;2.00;;;18.10;99.90;;;;;;4789177;30;20735;-92
2022/10/22 12:54:32;;;;;;;4.25;1.70;;;18.00;99.90;;;;;;4789110;30;20183;-93
2022/10/22 12:56:59;;;;;;;8.82;2.40;;;17.90;99.90;;;;;;4789517;29;20286;-92
2022/10/22 12:59:29;;;;;;;6.60;2.25;;;17.80;99.90;;;;;;4789408;30;20260;-92
2022/10/22 13:01:56;;;;;;;5.85;2.33;;;17.80;99.90;;;;;;4789315;30;20179;-94
2022/10/22 13:04:25;;;;;;;4.68;2.25;;;17.80;99.90;;;;;;4789250;30;20266;-91
2022/10/22 13:07:12;;;;;;;3.50;2.13;;;18.00;99.90;;;;;;4789539;29;20258;-91
2022/10/22 13:09:39;;;;;;;7.65;2.33;;;18.30;99.90;;;;;;4777168;30;20661;-92
2022/10/22 13:12:09;;;;;;;4.75;2.30;;;18.40;99.90;;;;;;4789075;29;20235;-92